sensor_id;sensor_type;location;lat;lon;timestamp;P1;durP1;ratioP1;P2;durP2;ratioP2
19030;SDS011;9648;51.130;13.978;2023-12-22T00:01:12;15.63;;;2.30;;
19030;SDS011;9648;51.130;13.978;2023-12-22T00:04:15;9.40;;;2.50;;
19030;SDS011;9648;51.130;13.978;2023-12-22T00:07:16;8.70;;;1.73;;
19030;SDS011;9648;51.130;13.978;2023-12-22T00:10:20;13.33;;;2.00;;
19030;SDS011;9648;51.130;13.978;2023-12-22T00:13:23;8.27;;;1.83;;
19030;SDS011;9648;51.130;13.978;2023-12-22T00:16:25;9.27;;;1.97;;
19030;SDS011;9648;51.130;13.978;2023-12-22T00:19:26;12.07;;;2.07;;
19030;SDS011;9648;51.130;13.978;2023-12-22T00:22:28;8.43;;;2.00;;
19030;SDS011;9648;51.130;13.978;2023-12-22T00:25:29;12.40;;;1.73;;
19030;SDS011;9648;51.130;13.978;2023-12-22T00:28:32;14.63;;;2.70;;
19030;SDS011;9648;51.130;13.978;2023-12-22T00:31:34;12.00;;;2.60;;
19030;SDS011;9648;51.130;13.978;2023-12-22T00:34:35;18.17;;;2.97;;
19030;SDS011;9648;51.130;13.978;2023-12-22T00:37:37;13.57;;;1.97;;
19030;SDS011;9648;51.130;13.978;2023-12-22T00:40:39;16.47;;;2.57;;
19030;SDS011;9648;51.130;13.978;2023-12-22T00:43:41;10.87;;;2.10;;
19030;SDS011;9648;51.130;13.978;2023-12-22T00:46:43;13.23;;;2.10;;
19030;SDS011;9648;51.130;13.978;2023-12-22T00:49:44;20.60;;;2.63;;
19030;SDS011;9648;51.130;13.978;2023-12-22T00:52:46;13.77;;;2.10;;
19030;SDS011;9648;51.130;13.978;2023-12-22T00:55:48;13.10;;;2.07;;
19030;SDS011;9648;51.130;13.978;2023-12-22T00:58:51;13.90;;;2.20;;
19030;SDS011;9648;51.130;13.978;2023-12-22T01:01:53;20.33;;;2.50;;
19030;SDS011;9648;51.130;13.978;2023-12-22T01:04:55;17.80;;;2.20;;
19030;SDS011;9648;51.130;13.978;2023-12-22T01:07:56;11.90;;;1.90;;
19030;SDS011;9648;51.130;13.978;2023-12-22T01:10:58;13.20;;;2.40;;
19030;SDS011;9648;51.130;13.978;2023-12-22T01:14:01;13.57;;;2.10;;
19030;SDS011;9648;51.130;13.978;2023-12-22T01:17:02;14.17;;;2.40;;
19030;SDS011;9648;51.130;13.978;2023-12-22T01:20:04;8.10;;;2.17;;
19030;SDS011;9648;51.130;13.978;2023-12-22T01:23:06;12.43;;;2.10;;
19030;SDS011;9648;51.130;13.978;2023-12-22T01:26:08;10.43;;;2.67;;
19030;SDS011;9648;51.130;13.978;2023-12-22T01:29:11;12.87;;;1.73;;
19030;SDS011;9648;51.130;13.978;2023-12-22T01:32:12;14.13;;;1.80;;
19030;SDS011;9648;51.130;13.978;2023-12-22T01:35:14;12.20;;;1.80;;
19030;SDS011;9648;51.130;13.978;2023-12-22T01:38:15;15.00;;;2.17;;
19030;SDS011;9648;51.130;13.978;2023-12-22T01:41:17;7.73;;;1.80;;
19030;SDS011;9648;51.130;13.978;2023-12-22T01:44:21;14.13;;;2.57;;
19030;SDS011;9648;51.130;13.978;2023-12-22T01:47:22;15.10;;;2.27;;
19030;SDS011;9648;51.130;13.978;2023-12-22T01:50:26;14.47;;;3.00;;
19030;SDS011;9648;51.130;13.978;2023-12-22T01:53:27;10.27;;;2.43;;
19030;SDS011;9648;51.130;13.978;2023-12-22T01:56:29;13.83;;;2.53;;
19030;SDS011;9648;51.130;13.978;2023-12-22T01:59:32;16.53;;;1.70;;
19030;SDS011;9648;51.130;13.978;2023-12-22T02:02:35;9.67;;;1.83;;
19030;SDS011;9648;51.130;13.978;2023-12-22T02:05:39;9.43;;;1.93;;
19030;SDS011;9648;51.130;13.978;2023-12-22T02:08:41;15.17;;;2.13;;
19030;SDS011;9648;51.130;13.978;2023-12-22T02:11:45;15.77;;;1.90;;
19030;SDS011;9648;51.130;13.978;2023-12-22T02:14:48;16.37;;;2.10;;
19030;SDS011;9648;51.130;13.978;2023-12-22T02:17:52;15.13;;;2.80;;
19030;SDS011;9648;51.130;13.978;2023-12-22T02:20:56;14.40;;;2.43;;
19030;SDS011;9648;51.130;13.978;2023-12-22T02:23:59;11.90;;;1.90;;
19030;SDS011;9648;51.130;13.978;2023-12-22T02:27:03;13.47;;;2.60;;
19030;SDS011;9648;51.130;13.978;2023-12-22T02:30:07;16.57;;;2.50;;
19030;SDS011;9648;51.130;13.978;2023-12-22T02:33:11;16.73;;;2.43;;
19030;SDS011;9648;51.130;13.978;2023-12-22T02:36:13;22.97;;;2.80;;
19030;SDS011;9648;51.130;13.978;2023-12-22T02:39:17;20.03;;;2.73;;
19030;SDS011;9648;51.130;13.978;2023-12-22T02:42:19;16.17;;;2.53;;
19030;SDS011;9648;51.130;13.978;2023-12-22T02:45:23;15.83;;;2.83;;
19030;SDS011;9648;51.130;13.978;2023-12-22T02:48:24;9.30;;;2.20;;
19030;SDS011;9648;51.130;13.978;2023-12-22T02:51:26;13.93;;;2.60;;
19030;SDS011;9648;51.130;13.978;2023-12-22T02:54:29;15.90;;;2.37;;
19030;SDS011;9648;51.130;13.978;2023-12-22T02:57:31;15.33;;;2.30;;
19030;SDS011;9648;51.130;13.978;2023-12-22T03:00:33;16.17;;;2.00;;
19030;SDS011;9648;51.130;13.978;2023-12-22T03:03:35;25.90;;;2.50;;
19030;SDS011;9648;51.130;13.978;2023-12-22T03:06:36;14.77;;;2.23;;
19030;SDS011;9648;51.130;13.978;2023-12-22T03:09:45;14.27;;;2.50;;
19030;SDS011;9648;51.130;13.978;2023-12-22T03:12:47;9.93;;;2.40;;
19030;SDS011;9648;51.130;13.978;2023-12-22T03:15:48;13.53;;;2.00;;
19030;SDS011;9648;51.130;13.978;2023-12-22T03:18:50;13.17;;;2.13;;
19030;SDS011;9648;51.130;13.978;2023-12-22T03:21:51;20.13;;;2.80;;
19030;SDS011;9648;51.130;13.978;2023-12-22T03:24:54;16.00;;;2.57;;
19030;SDS011;9648;51.130;13.978;2023-12-22T03:27:56;15.27;;;2.40;;
19030;SDS011;9648;51.130;13.978;2023-12-22T03:30:57;14.57;;;3.17;;
19030;SDS011;9648;51.130;13.978;2023-12-22T03:33:59;18.53;;;2.67;;
19030;SDS011;9648;51.130;13.978;2023-12-22T03:37:00;16.63;;;2.60;;
19030;SDS011;9648;51.130;13.978;2023-12-22T03:40:04;8.77;;;2.20;;
19030;SDS011;9648;51.130;13.978;2023-12-22T03:43:06;19.97;;;2.53;;
19030;SDS011;9648;51.130;13.978;2023-12-22T03:46:07;17.90;;;2.57;;
19030;SDS011;9648;51.130;13.978;2023-12-22T03:49:09;12.20;;;2.77;;
19030;SDS011;9648;51.130;13.978;2023-12-22T03:52:10;20.63;;;3.57;;
19030;SDS011;9648;51.130;13.978;2023-12-22T03:55:13;22.03;;;3.20;;
19030;SDS011;9648;51.130;13.978;2023-12-22T03:58:14;14.33;;;2.50;;
19030;SDS011;9648;51.130;13.978;2023-12-22T04:01:16;21.27;;;2.37;;
19030;SDS011;9648;51.130;13.978;2023-12-22T04:04:17;14.60;;;2.47;;
19030;SDS011;9648;51.130;13.978;2023-12-22T04:07:22;25.67;;;2.60;;
19030;SDS011;9648;51.130;13.978;2023-12-22T04:10:25;11.50;;;2.13;;
19030;SDS011;9648;51.130;13.978;2023-12-22T04:13:27;16.40;;;2.57;;
19030;SDS011;9648;51.130;13.978;2023-12-22T04:16:28;20.30;;;2.43;;
19030;SDS011;9648;51.130;13.978;2023-12-22T04:19:30;11.60;;;2.30;;
19030;SDS011;9648;51.130;13.978;2023-12-22T04:22:31;17.47;;;2.37;;
19030;SDS011;9648;51.130;13.978;2023-12-22T04:25:34;9.70;;;2.10;;
19030;SDS011;9648;51.130;13.978;2023-12-22T04:28:36;15.83;;;2.17;;
19030;SDS011;9648;51.130;13.978;2023-12-22T04:31:37;13.40;;;2.27;;
19030;SDS011;9648;51.130;13.978;2023-12-22T04:34:39;14.53;;;1.87;;
19030;SDS011;9648;51.130;13.978;2023-12-22T04:37:40;14.80;;;2.20;;
19030;SDS011;9648;51.130;13.978;2023-12-22T04:40:43;11.00;;;2.00;;
19030;SDS011;9648;51.130;13.978;2023-12-22T04:43:44;17.97;;;2.60;;
19030;SDS011;9648;51.130;13.978;2023-12-22T04:46:46;18.27;;;2.00;;
19030;SDS011;9648;51.130;13.978;2023-12-22T04:49:47;10.80;;;2.20;;
19030;SDS011;9648;51.130;13.978;2023-12-22T04:52:49;10.77;;;1.70;;
19030;SDS011;9648;51.130;13.978;2023-12-22T04:55:52;10.80;;;2.00;;
19030;SDS011;9648;51.130;13.978;2023-12-22T04:58:53;11.77;;;1.97;;
19030;SDS011;9648;51.130;13.978;2023-12-22T05:01:55;16.50;;;2.13;;
19030;SDS011;9648;51.130;13.978;2023-12-22T05:04:56;8.77;;;1.50;;
19030;SDS011;9648;51.130;13.978;2023-12-22T05:07:58;11.63;;;2.33;;
19030;SDS011;9648;51.130;13.978;2023-12-22T05:11:01;6.87;;;1.90;;
19030;SDS011;9648;51.130;13.978;2023-12-22T05:14:03;8.67;;;2.80;;
19030;SDS011;9648;51.130;13.978;2023-12-22T05:17:05;11.90;;;1.90;;
19030;SDS011;9648;51.130;13.978;2023-12-22T05:20:06;4.93;;;1.43;;
19030;SDS011;9648;51.130;13.978;2023-12-22T05:23:09;8.73;;;1.60;;
19030;SDS011;9648;51.130;13.978;2023-12-22T05:26:17;7.97;;;1.50;;
19030;SDS011;9648;51.130;13.978;2023-12-22T05:29:19;8.37;;;1.53;;
19030;SDS011;9648;51.130;13.978;2023-12-22T05:32:22;4.83;;;1.10;;
19030;SDS011;9648;51.130;13.978;2023-12-22T05:35:24;5.63;;;1.10;;
19030;SDS011;9648;51.130;13.978;2023-12-22T05:38:25;5.03;;;1.20;;
19030;SDS011;9648;51.130;13.978;2023-12-22T05:41:28;9.27;;;1.50;;
19030;SDS011;9648;51.130;13.978;2023-12-22T05:44:30;5.33;;;0.90;;
19030;SDS011;9648;51.130;13.978;2023-12-22T05:47:31;6.37;;;1.07;;
19030;SDS011;9648;51.130;13.978;2023-12-22T05:50:32;4.27;;;0.90;;
19030;SDS011;9648;51.130;13.978;2023-12-22T05:53:34;4.67;;;1.13;;
19030;SDS011;9648;51.130;13.978;2023-12-22T05:56:37;6.57;;;1.20;;
19030;SDS011;9648;51.130;13.978;2023-12-22T05:59:38;3.73;;;0.80;;
19030;SDS011;9648;51.130;13.978;2023-12-22T06:02:40;5.33;;;1.57;;
19030;SDS011;9648;51.130;13.978;2023-12-22T06:05:41;4.47;;;1.00;;
19030;SDS011;9648;51.130;13.978;2023-12-22T06:08:43;5.47;;;1.10;;
19030;SDS011;9648;51.130;13.978;2023-12-22T06:11:45;3.80;;;1.03;;
19030;SDS011;9648;51.130;13.978;2023-12-22T06:14:47;3.20;;;1.23;;
19030;SDS011;9648;51.130;13.978;2023-12-22T06:17:48;5.80;;;1.13;;
19030;SDS011;9648;51.130;13.978;2023-12-22T06:20:50;4.47;;;0.97;;
19030;SDS011;9648;51.130;13.978;2023-12-22T06:23:51;5.20;;;1.40;;
19030;SDS011;9648;51.130;13.978;2023-12-22T06:26:54;7.03;;;1.43;;
19030;SDS011;9648;51.130;13.978;2023-12-22T06:29:56;10.43;;;1.70;;
19030;SDS011;9648;51.130;13.978;2023-12-22T06:32:58;8.53;;;1.50;;
19030;SDS011;9648;51.130;13.978;2023-12-22T06:35:59;11.37;;;1.47;;
19030;SDS011;9648;51.130;13.978;2023-12-22T06:39:01;9.33;;;1.20;;
19030;SDS011;9648;51.130;13.978;2023-12-22T06:42:04;10.67;;;1.80;;
19030;SDS011;9648;51.130;13.978;2023-12-22T06:45:11;8.13;;;1.20;;
19030;SDS011;9648;51.130;13.978;2023-12-22T06:48:12;6.27;;;1.50;;
19030;SDS011;9648;51.130;13.978;2023-12-22T06:51:17;7.53;;;1.17;;
19030;SDS011;9648;51.130;13.978;2023-12-22T06:54:19;8.27;;;1.73;;
19030;SDS011;9648;51.130;13.978;2023-12-22T06:57:23;5.03;;;1.20;;
19030;SDS011;9648;51.130;13.978;2023-12-22T07:00:24;7.97;;;1.40;;
19030;SDS011;9648;51.130;13.978;2023-12-22T07:03:26;6.10;;;1.27;;
19030;SDS011;9648;51.130;13.978;2023-12-22T07:06:28;9.20;;;1.70;;
19030;SDS011;9648;51.130;13.978;2023-12-22T07:09:30;12.80;;;2.00;;
19030;SDS011;9648;51.130;13.978;2023-12-22T07:12:34;5.07;;;1.07;;
19030;SDS011;9648;51.130;13.978;2023-12-22T07:15:36;10.07;;;1.50;;
19030;SDS011;9648;51.130;13.978;2023-12-22T07:18:37;9.80;;;1.47;;
19030;SDS011;9648;51.130;13.978;2023-12-22T07:21:39;5.80;;;2.07;;
19030;SDS011;9648;51.130;13.978;2023-12-22T07:24:41;9.30;;;1.57;;
19030;SDS011;9648;51.130;13.978;2023-12-22T07:27:43;10.90;;;1.83;;
19030;SDS011;9648;51.130;13.978;2023-12-22T07:30:45;8.70;;;1.80;;
19030;SDS011;9648;51.130;13.978;2023-12-22T07:33:46;16.43;;;1.80;;
19030;SDS011;9648;51.130;13.978;2023-12-22T07:36:48;9.63;;;1.93;;
19030;SDS011;9648;51.130;13.978;2023-12-22T07:39:49;9.97;;;1.77;;
19030;SDS011;9648;51.130;13.978;2023-12-22T07:42:52;8.07;;;1.50;;
19030;SDS011;9648;51.130;13.978;2023-12-22T07:45:54;8.17;;;1.10;;
19030;SDS011;9648;51.130;13.978;2023-12-22T07:48:56;5.93;;;1.27;;
19030;SDS011;9648;51.130;13.978;2023-12-22T07:51:57;8.70;;;1.50;;
19030;SDS011;9648;51.130;13.978;2023-12-22T07:54:59;9.20;;;1.30;;
19030;SDS011;9648;51.130;13.978;2023-12-22T07:58:02;14.43;;;1.13;;
19030;SDS011;9648;51.130;13.978;2023-12-22T08:01:04;11.13;;;2.10;;
19030;SDS011;9648;51.130;13.978;2023-12-22T08:04:06;9.77;;;1.40;;
19030;SDS011;9648;51.130;13.978;2023-12-22T08:07:07;3.93;;;0.90;;
19030;SDS011;9648;51.130;13.978;2023-12-22T08:10:09;9.07;;;1.30;;
19030;SDS011;9648;51.130;13.978;2023-12-22T08:13:12;8.60;;;0.77;;
19030;SDS011;9648;51.130;13.978;2023-12-22T08:16:13;4.10;;;0.90;;
19030;SDS011;9648;51.130;13.978;2023-12-22T08:19:15;0.80;;;0.50;;
19030;SDS011;9648;51.130;13.978;2023-12-22T08:22:16;3.03;;;0.70;;
19030;SDS011;9648;51.130;13.978;2023-12-22T08:25:18;2.23;;;0.60;;
19030;SDS011;9648;51.130;13.978;2023-12-22T08:28:21;1.77;;;0.67;;
19030;SDS011;9648;51.130;13.978;2023-12-22T08:31:23;4.40;;;0.57;;
19030;SDS011;9648;51.130;13.978;2023-12-22T08:34:24;2.63;;;0.80;;
19030;SDS011;9648;51.130;13.978;2023-12-22T08:37:26;2.93;;;0.90;;
19030;SDS011;9648;51.130;13.978;2023-12-22T08:40:27;3.30;;;0.80;;
19030;SDS011;9648;51.130;13.978;2023-12-22T08:43:30;1.47;;;0.70;;
19030;SDS011;9648;51.130;13.978;2023-12-22T08:46:32;3.03;;;0.77;;
19030;SDS011;9648;51.130;13.978;2023-12-22T08:49:33;4.53;;;0.70;;
19030;SDS011;9648;51.130;13.978;2023-12-22T08:52:35;1.43;;;0.70;;
19030;SDS011;9648;51.130;13.978;2023-12-22T08:55:36;2.30;;;0.60;;
19030;SDS011;9648;51.130;13.978;2023-12-22T08:58:39;1.87;;;0.50;;
19030;SDS011;9648;51.130;13.978;2023-12-22T09:01:41;1.67;;;0.50;;
19030;SDS011;9648;51.130;13.978;2023-12-22T09:04:42;2.50;;;0.70;;
19030;SDS011;9648;51.130;13.978;2023-12-22T09:07:44;1.33;;;0.73;;
19030;SDS011;9648;51.130;13.978;2023-12-22T09:10:46;2.73;;;1.17;;
19030;SDS011;9648;51.130;13.978;2023-12-22T09:13:49;2.90;;;1.20;;
19030;SDS011;9648;51.130;13.978;2023-12-22T09:16:50;5.97;;;1.47;;
19030;SDS011;9648;51.130;13.978;2023-12-22T09:19:53;10.93;;;1.50;;
19030;SDS011;9648;51.130;13.978;2023-12-22T09:22:55;5.20;;;1.00;;
19030;SDS011;9648;51.130;13.978;2023-12-22T09:25:56;5.70;;;1.40;;
19030;SDS011;9648;51.130;13.978;2023-12-22T09:28:59;7.67;;;1.27;;
19030;SDS011;9648;51.130;13.978;2023-12-22T09:32:01;3.70;;;1.23;;
19030;SDS011;9648;51.130;13.978;2023-12-22T09:35:03;9.03;;;1.40;;
19030;SDS011;9648;51.130;13.978;2023-12-22T09:38:05;4.83;;;1.00;;
19030;SDS011;9648;51.130;13.978;2023-12-22T09:41:07;8.23;;;1.50;;
19030;SDS011;9648;51.130;13.978;2023-12-22T09:44:11;3.77;;;1.20;;
19030;SDS011;9648;51.130;13.978;2023-12-22T09:47:13;5.30;;;0.80;;
19030;SDS011;9648;51.130;13.978;2023-12-22T09:50:15;3.10;;;0.87;;
19030;SDS011;9648;51.130;13.978;2023-12-22T09:53:16;6.23;;;0.90;;
19030;SDS011;9648;51.130;13.978;2023-12-22T09:56:18;2.37;;;0.83;;
19030;SDS011;9648;51.130;13.978;2023-12-22T09:59:22;2.50;;;0.80;;
19030;SDS011;9648;51.130;13.978;2023-12-22T10:02:25;3.77;;;1.00;;
19030;SDS011;9648;51.130;13.978;2023-12-22T10:05:27;5.33;;;1.10;;
19030;SDS011;9648;51.130;13.978;2023-12-22T10:08:30;8.30;;;0.97;;
19030;SDS011;9648;51.130;13.978;2023-12-22T10:11:32;2.00;;;0.70;;
19030;SDS011;9648;51.130;13.978;2023-12-22T10:14:35;3.37;;;0.70;;
19030;SDS011;9648;51.130;13.978;2023-12-22T10:17:38;5.23;;;0.77;;
19030;SDS011;9648;51.130;13.978;2023-12-22T10:20:39;9.37;;;1.03;;
19030;SDS011;9648;51.130;13.978;2023-12-22T10:23:41;6.17;;;1.20;;
19030;SDS011;9648;51.130;13.978;2023-12-22T10:26:42;7.07;;;0.90;;
19030;SDS011;9648;51.130;13.978;2023-12-22T10:29:45;11.63;;;1.00;;
19030;SDS011;9648;51.130;13.978;2023-12-22T10:32:49;4.90;;;1.07;;
19030;SDS011;9648;51.130;13.978;2023-12-22T10:35:53;4.37;;;1.00;;
19030;SDS011;9648;51.130;13.978;2023-12-22T10:38:55;2.90;;;1.00;;
19030;SDS011;9648;51.130;13.978;2023-12-22T10:41:56;5.40;;;1.40;;
19030;SDS011;9648;51.130;13.978;2023-12-22T10:45:00;6.47;;;1.80;;
19030;SDS011;9648;51.130;13.978;2023-12-22T10:48:02;4.50;;;1.47;;
19030;SDS011;9648;51.130;13.978;2023-12-22T10:51:07;7.93;;;1.50;;
19030;SDS011;9648;51.130;13.978;2023-12-22T10:54:10;7.90;;;1.10;;
19030;SDS011;9648;51.130;13.978;2023-12-22T10:57:12;4.23;;;1.10;;
19030;SDS011;9648;51.130;13.978;2023-12-22T11:00:15;6.43;;;1.33;;
19030;SDS011;9648;51.130;13.978;2023-12-22T11:03:17;4.77;;;1.23;;
19030;SDS011;9648;51.130;13.978;2023-12-22T11:06:22;5.07;;;1.40;;
19030;SDS011;9648;51.130;13.978;2023-12-22T11:09:26;6.43;;;1.53;;
19030;SDS011;9648;51.130;13.978;2023-12-22T11:12:36;9.07;;;1.47;;
19030;SDS011;9648;51.130;13.978;2023-12-22T11:15:40;5.97;;;1.50;;
19030;SDS011;9648;51.130;13.978;2023-12-22T11:18:42;4.70;;;1.10;;
19030;SDS011;9648;51.130;13.978;2023-12-22T11:21:44;8.50;;;1.20;;
19030;SDS011;9648;51.130;13.978;2023-12-22T11:24:46;2.43;;;0.90;;
19030;SDS011;9648;51.130;13.978;2023-12-22T11:27:48;2.73;;;0.70;;
19030;SDS011;9648;51.130;13.978;2023-12-22T11:30:55;4.77;;;1.00;;
19030;SDS011;9648;51.130;13.978;2023-12-22T11:33:57;3.60;;;0.83;;
19030;SDS011;9648;51.130;13.978;2023-12-22T11:36:59;5.47;;;1.00;;
19030;SDS011;9648;51.130;13.978;2023-12-22T11:40:01;5.93;;;1.50;;
19030;SDS011;9648;51.130;13.978;2023-12-22T11:43:03;3.43;;;1.00;;
19030;SDS011;9648;51.130;13.978;2023-12-22T11:46:06;6.50;;;1.33;;
19030;SDS011;9648;51.130;13.978;2023-12-22T11:49:08;8.30;;;1.40;;
19030;SDS011;9648;51.130;13.978;2023-12-22T11:52:10;7.33;;;1.33;;
19030;SDS011;9648;51.130;13.978;2023-12-22T11:55:12;6.57;;;1.33;;
19030;SDS011;9648;51.130;13.978;2023-12-22T12:01:35;9.47;;;0.97;;
19030;SDS011;9648;51.130;13.978;2023-12-22T12:04:39;8.70;;;1.30;;
19030;SDS011;9648;51.130;13.978;2023-12-22T12:07:42;6.90;;;1.20;;
19030;SDS011;9648;51.130;13.978;2023-12-22T12:10:51;4.63;;;1.10;;
19030;SDS011;9648;51.130;13.978;2023-12-22T12:13:54;4.97;;;1.33;;
19030;SDS011;9648;51.130;13.978;2023-12-22T12:16:58;8.60;;;1.47;;
19030;SDS011;9648;51.130;13.978;2023-12-22T12:20:08;4.40;;;1.00;;
19030;SDS011;9648;51.130;13.978;2023-12-22T12:23:10;4.47;;;0.90;;
19030;SDS011;9648;51.130;13.978;2023-12-22T12:26:13;7.63;;;1.60;;
19030;SDS011;9648;51.130;13.978;2023-12-22T12:29:14;9.17;;;1.00;;
19030;SDS011;9648;51.130;13.978;2023-12-22T12:32:19;7.57;;;1.30;;
19030;SDS011;9648;51.130;13.978;2023-12-22T12:35:24;7.40;;;1.30;;
19030;SDS011;9648;51.130;13.978;2023-12-22T12:38:31;4.27;;;1.03;;
19030;SDS011;9648;51.130;13.978;2023-12-22T12:41:40;3.17;;;1.20;;
19030;SDS011;9648;51.130;13.978;2023-12-22T12:44:43;5.37;;;1.37;;
19030;SDS011;9648;51.130;13.978;2023-12-22T12:47:55;10.43;;;1.47;;
19030;SDS011;9648;51.130;13.978;2023-12-22T12:51:00;8.60;;;1.63;;
19030;SDS011;9648;51.130;13.978;2023-12-22T12:54:02;5.33;;;1.50;;
19030;SDS011;9648;51.130;13.978;2023-12-22T12:57:04;9.17;;;1.83;;
19030;SDS011;9648;51.130;13.978;2023-12-22T13:00:06;9.83;;;1.60;;
19030;SDS011;9648;51.130;13.978;2023-12-22T13:03:10;12.17;;;2.13;;
19030;SDS011;9648;51.130;13.978;2023-12-22T13:06:11;10.93;;;1.70;;
19030;SDS011;9648;51.130;13.978;2023-12-22T13:09:13;10.50;;;1.47;;
19030;SDS011;9648;51.130;13.978;2023-12-22T13:12:17;7.80;;;1.23;;
19030;SDS011;9648;51.130;13.978;2023-12-22T13:15:18;3.93;;;1.13;;
19030;SDS011;9648;51.130;13.978;2023-12-22T13:18:24;7.20;;;1.20;;
19030;SDS011;9648;51.130;13.978;2023-12-22T13:21:25;3.40;;;0.90;;
19030;SDS011;9648;51.130;13.978;2023-12-22T13:24:27;3.37;;;0.80;;
19030;SDS011;9648;51.130;13.978;2023-12-22T13:27:28;7.37;;;1.00;;
19030;SDS011;9648;51.130;13.978;2023-12-22T13:30:33;3.03;;;1.73;;
19030;SDS011;9648;51.130;13.978;2023-12-22T13:33:37;2.73;;;0.80;;
19030;SDS011;9648;51.130;13.978;2023-12-22T13:36:38;0.70;;;0.70;;
19030;SDS011;9648;51.130;13.978;2023-12-22T13:39:42;5.47;;;1.10;;
19030;SDS011;9648;51.130;13.978;2023-12-22T13:42:43;3.23;;;0.90;;
19030;SDS011;9648;51.130;13.978;2023-12-22T13:45:48;2.67;;;0.50;;
19030;SDS011;9648;51.130;13.978;2023-12-22T13:48:51;3.03;;;0.70;;
19030;SDS011;9648;51.130;13.978;2023-12-22T13:51:54;3.63;;;0.80;;
19030;SDS011;9648;51.130;13.978;2023-12-22T13:54:56;4.27;;;0.60;;
19030;SDS011;9648;51.130;13.978;2023-12-22T13:58:01;5.53;;;0.70;;
19030;SDS011;9648;51.130;13.978;2023-12-22T14:01:03;2.87;;;0.70;;
19030;SDS011;9648;51.130;13.978;2023-12-22T14:04:15;4.93;;;0.93;;
19030;SDS011;9648;51.130;13.978;2023-12-22T14:07:17;2.77;;;0.70;;
19030;SDS011;9648;51.130;13.978;2023-12-22T14:10:18;1.70;;;0.47;;
19030;SDS011;9648;51.130;13.978;2023-12-22T14:13:22;2.60;;;0.60;;
19030;SDS011;9648;51.130;13.978;2023-12-22T14:16:24;0.50;;;0.50;;
19030;SDS011;9648;51.130;13.978;2023-12-22T14:19:27;3.10;;;0.50;;
19030;SDS011;9648;51.130;13.978;2023-12-22T14:22:28;2.07;;;0.50;;
19030;SDS011;9648;51.130;13.978;2023-12-22T14:25:30;1.20;;;0.50;;
19030;SDS011;9648;51.130;13.978;2023-12-22T14:28:32;1.13;;;0.50;;
19030;SDS011;9648;51.130;13.978;2023-12-22T14:31:33;2.00;;;0.80;;
19030;SDS011;9648;51.130;13.978;2023-12-22T14:34:36;1.00;;;0.60;;
19030;SDS011;9648;51.130;13.978;2023-12-22T14:37:37;4.80;;;0.60;;
19030;SDS011;9648;51.130;13.978;2023-12-22T14:40:39;2.10;;;0.60;;
19030;SDS011;9648;51.130;13.978;2023-12-22T14:43:41;1.03;;;0.60;;
19030;SDS011;9648;51.130;13.978;2023-12-22T14:46:42;3.23;;;1.17;;
19030;SDS011;9648;51.130;13.978;2023-12-22T14:49:47;1.23;;;1.10;;
19030;SDS011;9648;51.130;13.978;2023-12-22T14:52:48;1.07;;;0.60;;
19030;SDS011;9648;51.130;13.978;2023-12-22T14:55:50;3.57;;;0.93;;
19030;SDS011;9648;51.130;13.978;2023-12-22T14:58:53;2.37;;;0.80;;
19030;SDS011;9648;51.130;13.978;2023-12-22T15:01:55;3.13;;;1.00;;
19030;SDS011;9648;51.130;13.978;2023-12-22T15:04:58;1.93;;;0.90;;
19030;SDS011;9648;51.130;13.978;2023-12-22T15:07:59;1.00;;;0.83;;
19030;SDS011;9648;51.130;13.978;2023-12-22T15:11:02;1.73;;;0.80;;
19030;SDS011;9648;51.130;13.978;2023-12-22T15:14:04;3.27;;;0.80;;
19030;SDS011;9648;51.130;13.978;2023-12-22T15:17:05;1.97;;;0.80;;
19030;SDS011;9648;51.130;13.978;2023-12-22T15:20:08;2.90;;;0.87;;
19030;SDS011;9648;51.130;13.978;2023-12-22T15:23:10;2.27;;;1.43;;
19030;SDS011;9648;51.130;13.978;2023-12-22T15:26:19;2.30;;;1.13;;
19030;SDS011;9648;51.130;13.978;2023-12-22T15:29:21;4.97;;;1.23;;
19030;SDS011;9648;51.130;13.978;2023-12-22T15:32:22;5.83;;;1.53;;
19030;SDS011;9648;51.130;13.978;2023-12-22T15:35:25;2.70;;;1.17;;
19030;SDS011;9648;51.130;13.978;2023-12-22T15:38:27;4.63;;;1.60;;
19030;SDS011;9648;51.130;13.978;2023-12-22T15:41:28;6.37;;;2.00;;
19030;SDS011;9648;51.130;13.978;2023-12-22T15:44:30;4.63;;;1.63;;
19030;SDS011;9648;51.130;13.978;2023-12-22T15:47:32;3.37;;;1.37;;
19030;SDS011;9648;51.130;13.978;2023-12-22T15:50:35;6.67;;;1.80;;
19030;SDS011;9648;51.130;13.978;2023-12-22T15:53:36;7.17;;;2.23;;
19030;SDS011;9648;51.130;13.978;2023-12-22T15:56:38;5.80;;;1.80;;
19030;SDS011;9648;51.130;13.978;2023-12-22T15:59:40;4.03;;;1.50;;
19030;SDS011;9648;51.130;13.978;2023-12-22T16:02:42;5.00;;;1.80;;
19030;SDS011;9648;51.130;13.978;2023-12-22T16:05:45;8.63;;;1.70;;
19030;SDS011;9648;51.130;13.978;2023-12-22T16:08:46;7.53;;;1.50;;
19030;SDS011;9648;51.130;13.978;2023-12-22T16:11:48;5.90;;;1.30;;
19030;SDS011;9648;51.130;13.978;2023-12-22T16:14:49;4.33;;;1.60;;
19030;SDS011;9648;51.130;13.978;2023-12-22T16:17:54;7.10;;;1.43;;
19030;SDS011;9648;51.130;13.978;2023-12-22T16:20:57;5.20;;;1.50;;
19030;SDS011;9648;51.130;13.978;2023-12-22T16:24:02;7.47;;;1.37;;
19030;SDS011;9648;51.130;13.978;2023-12-22T16:27:04;6.57;;;1.50;;
19030;SDS011;9648;51.130;13.978;2023-12-22T16:30:06;6.77;;;1.53;;
19030;SDS011;9648;51.130;13.978;2023-12-22T16:33:09;4.50;;;1.30;;
19030;SDS011;9648;51.130;13.978;2023-12-22T16:36:11;8.00;;;1.40;;
19030;SDS011;9648;51.130;13.978;2023-12-22T16:39:13;8.60;;;1.50;;
19030;SDS011;9648;51.130;13.978;2023-12-22T16:42:14;6.10;;;1.40;;
19030;SDS011;9648;51.130;13.978;2023-12-22T16:45:16;3.97;;;1.30;;
19030;SDS011;9648;51.130;13.978;2023-12-22T16:48:18;2.60;;;1.53;;
19030;SDS011;9648;51.130;13.978;2023-12-22T16:51:20;5.67;;;1.20;;
19030;SDS011;9648;51.130;13.978;2023-12-22T16:54:22;5.17;;;1.50;;
19030;SDS011;9648;51.130;13.978;2023-12-22T16:57:24;3.47;;;1.33;;
19030;SDS011;9648;51.130;13.978;2023-12-22T17:00:25;5.73;;;1.50;;
19030;SDS011;9648;51.130;13.978;2023-12-22T17:03:27;3.13;;;1.43;;
19030;SDS011;9648;51.130;13.978;2023-12-22T17:06:30;3.60;;;1.57;;
19030;SDS011;9648;51.130;13.978;2023-12-22T17:09:31;4.97;;;1.87;;
19030;SDS011;9648;51.130;13.978;2023-12-22T17:12:33;4.63;;;1.90;;
19030;SDS011;9648;51.130;13.978;2023-12-22T17:15:34;7.03;;;1.97;;
19030;SDS011;9648;51.130;13.978;2023-12-22T17:18:36;5.77;;;1.80;;
19030;SDS011;9648;51.130;13.978;2023-12-22T17:21:38;6.17;;;1.80;;
19030;SDS011;9648;51.130;13.978;2023-12-22T17:24:42;3.83;;;1.60;;
19030;SDS011;9648;51.130;13.978;2023-12-22T17:27:43;6.67;;;1.70;;
19030;SDS011;9648;51.130;13.978;2023-12-22T17:30:46;1.87;;;1.20;;
19030;SDS011;9648;51.130;13.978;2023-12-22T17:33:47;2.73;;;1.40;;
19030;SDS011;9648;51.130;13.978;2023-12-22T17:36:50;4.07;;;1.00;;
19030;SDS011;9648;51.130;13.978;2023-12-22T17:39:51;7.03;;;0.90;;
19030;SDS011;9648;51.130;13.978;2023-12-22T17:42:53;1.80;;;0.70;;
19030;SDS011;9648;51.130;13.978;2023-12-22T17:45:54;1.00;;;0.80;;
19030;SDS011;9648;51.130;13.978;2023-12-22T17:48:56;1.23;;;0.87;;
19030;SDS011;9648;51.130;13.978;2023-12-22T17:51:59;4.83;;;0.90;;
19030;SDS011;9648;51.130;13.978;2023-12-22T17:55:01;3.83;;;0.87;;
19030;SDS011;9648;51.130;13.978;2023-12-22T17:58:03;6.77;;;0.77;;
19030;SDS011;9648;51.130;13.978;2023-12-22T18:01:04;4.27;;;1.00;;
19030;SDS011;9648;51.130;13.978;2023-12-22T18:04:06;2.73;;;0.90;;
19030;SDS011;9648;51.130;13.978;2023-12-22T18:07:10;6.07;;;1.10;;
19030;SDS011;9648;51.130;13.978;2023-12-22T18:10:11;2.83;;;0.77;;
19030;SDS011;9648;51.130;13.978;2023-12-22T18:13:13;3.17;;;1.00;;
19030;SDS011;9648;51.130;13.978;2023-12-22T18:16:14;2.93;;;0.73;;